createdAt,value
2022-10-19T00:00:29.925Z,3.95
2022-10-19T00:02:56.316Z,4.28
2022-10-19T00:05:22.676Z,3.70
2022-10-19T00:07:49.037Z,4.05
2022-10-19T00:10:15.537Z,3.70
2022-10-19T00:12:42.038Z,3.95
2022-10-19T00:15:08.768Z,4.47
2022-10-19T00:17:35.697Z,3.65
2022-10-19T00:20:02.331Z,4.07
2022-10-19T00:22:28.790Z,3.72
2022-10-19T00:24:57.784Z,3.33
2022-10-19T00:27:24.196Z,3.30
2022-10-19T00:29:50.569Z,3.88
2022-10-19T00:32:16.958Z,3.35
2022-10-19T00:34:43.392Z,4.22
2022-10-19T00:37:09.772Z,3.17
2022-10-19T00:39:36.234Z,3.53
2022-10-19T00:42:02.617Z,3.63
2022-10-19T00:44:29.012Z,3.45
2022-10-19T00:47:00.834Z,3.13
2022-10-19T00:49:33.336Z,3.58
2022-10-19T00:52:04.412Z,4.18
2022-10-19T00:54:36.363Z,3.50
2022-10-19T00:57:04.257Z,3.45
2022-10-19T00:59:31.986Z,3.05
2022-10-19T01:01:59.350Z,3.30
2022-10-19T01:04:27.775Z,3.80
2022-10-19T01:06:54.911Z,3.67
2022-10-19T01:09:21.330Z,3.30
2022-10-19T01:12:07.431Z,3.95
2022-10-19T01:14:33.816Z,3.50
2022-10-19T01:17:27.846Z,4.05
2022-10-19T01:22:39.464Z,2.97
2022-10-19T01:25:11.793Z,3.92
2022-10-19T01:28:01.558Z,3.30
2022-10-19T01:31:04.580Z,3.40
2022-10-19T01:33:35.182Z,3.35
2022-10-19T01:36:26.185Z,3.45
2022-10-19T01:39:33.525Z,3.45
2022-10-19T01:42:11.972Z,4.22
2022-10-19T01:44:57.604Z,3.50
2022-10-19T01:47:33.565Z,3.15
2022-10-19T01:50:08.494Z,3.38
2022-10-19T01:52:37.865Z,3.33
2022-10-19T01:55:04.963Z,3.67
2022-10-19T01:57:35.958Z,3.65
2022-10-19T02:00:07.465Z,3.78
2022-10-19T02:02:46.459Z,3.90
2022-10-19T02:05:13.987Z,3.65
2022-10-19T02:07:45.626Z,4.10
2022-10-19T02:10:12.075Z,3.70
2022-10-19T02:12:40.137Z,3.38
2022-10-19T02:15:12.509Z,3.92
2022-10-19T02:17:44.549Z,4.00
2022-10-19T02:20:11.248Z,3.75
2022-10-19T02:22:37.757Z,3.78
2022-10-19T02:25:04.861Z,3.75
2022-10-19T02:27:31.257Z,4.05
2022-10-19T02:29:57.731Z,4.38
2022-10-19T02:32:24.201Z,4.13
2022-10-19T02:34:50.645Z,4.28
2022-10-19T02:37:19.868Z,4.13
2022-10-19T02:39:48.496Z,3.78
2022-10-19T02:42:26.125Z,4.57
2022-10-19T02:45:00.010Z,4.60
2022-10-19T02:47:33.705Z,4.45
2022-10-19T02:50:01.059Z,4.20
2022-10-19T02:52:27.428Z,4.63
2022-10-19T02:54:53.837Z,4.85
2022-10-19T02:57:23.405Z,4.53
2022-10-19T02:59:50.462Z,4.22
2022-10-19T03:02:18.016Z,4.50
2022-10-19T03:04:45.147Z,4.22
2022-10-19T03:07:14.666Z,4.60
2022-10-19T03:09:42.028Z,4.55
2022-10-19T03:12:08.602Z,4.68
2022-10-19T03:14:34.995Z,5.60
2022-10-19T03:17:01.801Z,5.47
2022-10-19T03:19:28.251Z,5.28
2022-10-19T03:21:54.745Z,5.68
2022-10-19T03:24:22.170Z,5.15
2022-10-19T03:26:48.941Z,5.40
2022-10-19T03:29:15.390Z,6.30
2022-10-19T03:31:41.881Z,5.82
2022-10-19T03:34:08.291Z,5.45
2022-10-19T03:36:36.957Z,5.45
2022-10-19T03:39:06.791Z,6.28
2022-10-19T03:41:35.583Z,6.07
2022-10-19T03:44:02.454Z,6.30
2022-10-19T03:46:29.081Z,5.80
2022-10-19T03:48:55.475Z,6.07
2022-10-19T03:51:27.103Z,6.35
2022-10-19T03:53:59.239Z,6.50
2022-10-19T03:56:27.464Z,6.20
2022-10-19T03:58:55.961Z,5.97
2022-10-19T04:01:28.919Z,6.18
2022-10-19T04:04:00.722Z,6.28
2022-10-19T04:06:29.969Z,6.18
2022-10-19T04:08:56.929Z,5.60
2022-10-19T04:11:29.145Z,5.50
2022-10-19T04:13:57.124Z,6.15
2022-10-19T04:16:24.818Z,5.68
2022-10-19T04:18:51.564Z,5.72
2022-10-19T04:21:26.251Z,6.07
2022-10-19T04:23:56.765Z,6.97
2022-10-19T04:26:23.795Z,6.72
2022-10-19T04:28:50.331Z,6.55
2022-10-19T04:31:16.761Z,6.38
2022-10-19T04:33:43.205Z,6.40
2022-10-19T04:36:11.916Z,5.38
2022-10-19T04:38:39.194Z,7.13
2022-10-19T04:41:11.617Z,6.20
2022-10-19T04:43:38.490Z,5.82
2022-10-19T04:46:10.302Z,5.28
2022-10-19T04:48:38.299Z,5.45
2022-10-19T04:51:05.126Z,6.13
2022-10-19T04:53:32.590Z,6.63
2022-10-19T04:55:58.994Z,6.30
2022-10-19T04:58:25.428Z,6.28
2022-10-19T05:00:51.845Z,6.22
2022-10-19T05:03:18.458Z,5.22
2022-10-19T05:05:44.846Z,6.22
2022-10-19T05:08:11.524Z,5.95
2022-10-19T05:10:38.210Z,5.85
2022-10-19T05:13:05.207Z,6.18
2022-10-19T05:15:32.101Z,5.30
2022-10-19T05:17:58.508Z,6.30
2022-10-19T05:20:24.885Z,5.47
2022-10-19T05:22:51.747Z,5.95
2022-10-19T05:25:18.198Z,6.32
2022-10-19T05:27:44.644Z,6.05
2022-10-19T05:30:11.250Z,6.18
2022-10-19T05:32:37.617Z,6.15
2022-10-19T05:35:04.266Z,5.90
2022-10-19T05:37:30.728Z,6.55
2022-10-19T05:39:57.233Z,5.90
2022-10-19T05:42:23.599Z,6.00
2022-10-19T05:44:50.035Z,6.15
2022-10-19T05:47:16.397Z,6.60
2022-10-19T05:49:42.778Z,6.95
2022-10-19T05:52:09.139Z,7.22
2022-10-19T05:54:36.825Z,7.00
2022-10-19T05:57:03.350Z,6.95
2022-10-19T05:59:29.744Z,6.90
2022-10-19T06:01:56.163Z,7.18
2022-10-19T06:04:22.550Z,6.97
2022-10-19T06:06:48.924Z,7.07
2022-10-19T06:09:15.363Z,7.65
2022-10-19T06:11:42.740Z,7.82
2022-10-19T06:14:13.627Z,8.52
2022-10-19T06:16:40.048Z,8.00
2022-10-19T06:19:06.597Z,8.27
2022-10-19T06:21:34.226Z,8.05
2022-10-19T06:24:03.446Z,8.55
2022-10-19T06:26:32.202Z,8.50
2022-10-19T06:29:00.692Z,8.70
2022-10-19T06:31:32.536Z,9.18
2022-10-19T06:33:59.018Z,9.85
2022-10-19T06:36:28.389Z,8.45
2022-10-19T06:38:56.453Z,9.10
2022-10-19T06:41:23.475Z,9.80
2022-10-19T06:43:54.045Z,10.80
2022-10-19T06:46:23.241Z,9.63
2022-10-19T06:49:00.662Z,9.80
2022-10-19T06:51:28.892Z,9.93
2022-10-19T06:53:57.017Z,10.07
2022-10-19T06:56:25.293Z,9.20
2022-10-19T06:58:52.173Z,10.70
2022-10-19T07:01:19.265Z,9.68
2022-10-19T07:03:46.271Z,10.45
2022-10-19T07:06:13.275Z,10.18
2022-10-19T07:08:41.570Z,11.32
2022-10-19T07:11:10.882Z,12.68
2022-10-19T07:13:37.377Z,12.27
2022-10-19T07:16:06.739Z,12.77
2022-10-19T07:18:37.094Z,14.55
2022-10-19T07:21:06.359Z,13.90
2022-10-19T07:23:35.129Z,13.10
2022-10-19T07:26:12.137Z,13.88
2022-10-19T07:28:40.789Z,12.20
2022-10-19T07:31:10.056Z,14.27
2022-10-19T07:33:36.741Z,14.40
2022-10-19T07:36:06.538Z,14.73
2022-10-19T07:38:34.356Z,13.95
2022-10-19T07:41:05.571Z,14.30
2022-10-19T07:43:32.395Z,14.00
2022-10-19T07:46:05.418Z,13.23
2022-10-19T07:48:32.332Z,13.90
2022-10-19T07:51:04.917Z,13.02
2022-10-19T07:53:31.490Z,12.83
2022-10-19T07:56:12.759Z,13.75
2022-10-19T07:58:39.610Z,14.50
2022-10-19T08:01:09.016Z,14.05
2022-10-19T08:04:31.682Z,14.70
2022-10-19T08:06:24.043Z,15.65
2022-10-19T08:08:52.827Z,14.35
2022-10-19T08:11:25.987Z,14.55
2022-10-19T08:13:53.425Z,15.73
2022-10-19T08:16:44.174Z,15.10
2022-10-19T08:19:13.482Z,15.57
2022-10-19T08:21:42.548Z,14.32
2022-10-19T08:24:09.985Z,15.77
2022-10-19T08:26:38.254Z,16.60
2022-10-19T08:29:07.909Z,17.65
2022-10-19T08:31:34.748Z,15.68
2022-10-19T08:34:01.278Z,14.75
2022-10-19T08:36:31.051Z,14.88
2022-10-19T08:38:57.550Z,15.80
2022-10-19T08:41:51.991Z,15.43
2022-10-19T08:44:39.314Z,13.50
2022-10-19T08:47:23.214Z,14.57
2022-10-19T08:49:50.308Z,15.27
2022-10-19T08:52:24.274Z,14.10
2022-10-19T08:55:00.852Z,14.40
2022-10-19T08:58:14.370Z,13.82
2022-10-19T09:00:54.662Z,12.93
2022-10-19T09:04:00.792Z,10.15
2022-10-19T09:06:27.156Z,9.88
2022-10-19T09:08:56.555Z,8.75
2022-10-19T09:11:27.263Z,8.82
2022-10-19T09:14:20.872Z,8.57
2022-10-19T09:16:47.479Z,8.60
2022-10-19T09:19:30.838Z,8.73
2022-10-19T09:22:07.595Z,7.53
2022-10-19T09:24:43.913Z,6.88
2022-10-19T09:27:23.862Z,6.50
2022-10-19T09:29:55.076Z,6.05
2022-10-19T09:32:30.897Z,5.80
2022-10-19T09:35:02.229Z,5.25
2022-10-19T09:40:01.331Z,5.30
2022-10-19T09:42:30.322Z,4.97
2022-10-19T09:44:59.087Z,4.95
2022-10-19T09:47:45.665Z,4.80
2022-10-19T09:50:19.835Z,4.50
2022-10-19T09:52:47.836Z,5.70
2022-10-19T09:55:14.172Z,5.35
2022-10-19T09:57:45.193Z,5.45
2022-10-19T10:00:26.066Z,5.43
2022-10-19T10:02:54.608Z,5.22
2022-10-19T10:05:31.653Z,5.07
2022-10-19T10:07:58.088Z,4.43
2022-10-19T10:10:30.574Z,4.80
2022-10-19T10:13:00.782Z,5.00
2022-10-19T10:15:35.163Z,4.72
2022-10-19T10:18:02.417Z,3.97
2022-10-19T10:20:32.282Z,4.28
2022-10-19T10:23:02.266Z,3.70
2022-10-19T10:25:32.161Z,3.85
2022-10-19T10:28:19.885Z,3.10
2022-10-19T10:30:48.326Z,2.65
2022-10-19T10:33:40.015Z,2.30
2022-10-19T10:36:08.544Z,2.42
2022-10-19T10:38:47.100Z,2.05
2022-10-19T10:41:20.122Z,2.83
2022-10-19T10:46:33.195Z,1.73
2022-10-19T10:49:05.576Z,1.50
2022-10-19T10:51:38.742Z,1.63
2022-10-19T10:54:20.285Z,1.83
2022-10-19T10:57:16.724Z,1.90
2022-10-19T11:00:07.672Z,1.50
2022-10-19T11:02:48.929Z,1.50
2022-10-19T11:05:22.771Z,1.60
2022-10-19T11:07:54.322Z,1.35
2022-10-19T11:10:28.124Z,1.30
2022-10-19T11:13:15.871Z,1.42
2022-10-19T11:15:54.110Z,2.03
2022-10-19T11:18:26.796Z,1.65
2022-10-19T11:21:09.371Z,1.40
2022-10-19T11:23:49.088Z,1.38
2022-10-19T11:26:41.322Z,1.42
2022-10-19T11:29:32.852Z,1.63
2022-10-19T11:31:59.584Z,1.50
2022-10-19T11:34:38.277Z,1.35
2022-10-19T11:37:28.125Z,1.40
2022-10-19T11:40:22.099Z,1.05
2022-10-19T11:43:06.899Z,1.00
2022-10-19T11:46:09.237Z,1.05
2022-10-19T11:49:10.828Z,1.00
2022-10-19T11:51:51.821Z,1.13
2022-10-19T11:54:55.871Z,1.20
2022-10-19T12:00:14.535Z,1.20
2022-10-19T12:03:15.223Z,1.42
2022-10-19T12:05:47.561Z,1.05
2022-10-19T12:08:32.980Z,1.40
2022-10-19T12:11:21.462Z,1.20
2022-10-19T12:13:52.905Z,1.23
2022-10-19T12:16:23.911Z,1.48
2022-10-19T12:18:55.436Z,1.67
2022-10-19T12:21:30.066Z,1.30
2022-10-19T12:24:03.670Z,1.30
2022-10-19T12:26:34.631Z,1.25
2022-10-19T12:29:05.988Z,1.10
2022-10-19T12:31:33.217Z,1.23
2022-10-19T12:34:21.518Z,1.00
2022-10-19T12:36:59.064Z,1.20
2022-10-19T12:39:39.574Z,1.48
2022-10-19T12:42:18.940Z,0.93
2022-10-19T12:45:18.750Z,1.08
2022-10-19T12:48:19.985Z,0.98
2022-10-19T12:50:49.078Z,1.30
2022-10-19T12:53:28.565Z,0.95
2022-10-19T12:56:25.109Z,1.08
2022-10-19T12:58:56.303Z,1.10
2022-10-19T13:01:43.877Z,1.00
2022-10-19T13:04:16.655Z,0.90
2022-10-19T13:06:46.692Z,1.00
2022-10-19T13:09:28.997Z,0.90
2022-10-19T13:12:16.449Z,1.00
2022-10-19T13:14:57.118Z,0.88
2022-10-19T13:17:40.663Z,1.00
2022-10-19T13:20:12.907Z,0.98
2022-10-19T13:22:42.218Z,0.90
2022-10-19T13:25:28.281Z,0.80
2022-10-19T13:28:17.653Z,0.90
2022-10-19T13:30:44.015Z,1.40
2022-10-19T13:33:25.419Z,1.10
2022-10-19T13:36:02.090Z,1.40
2022-10-19T13:41:19.294Z,1.23
2022-10-19T13:44:02.632Z,1.25
2022-10-19T13:46:28.972Z,0.98
2022-10-19T13:49:01.224Z,0.90
2022-10-19T13:51:41.697Z,1.30
2022-10-19T13:54:26.303Z,1.30
2022-10-19T13:57:13.188Z,1.35
2022-10-19T14:00:07.448Z,1.00
2022-10-19T14:02:54.623Z,1.42
2022-10-19T14:06:02.339Z,1.40
2022-10-19T14:09:07.016Z,1.30
2022-10-19T14:11:39.963Z,1.00
2022-10-19T14:14:07.301Z,1.20
2022-10-19T14:16:33.702Z,1.00
2022-10-19T14:19:00.424Z,1.38
2022-10-19T14:21:34.654Z,1.35
2022-10-19T14:24:01.141Z,1.23
2022-10-19T14:26:30.891Z,1.20
2022-10-19T14:28:59.365Z,0.90
2022-10-19T14:31:33.268Z,1.17
2022-10-19T14:34:02.461Z,0.98
2022-10-19T14:36:34.998Z,1.10
2022-10-19T14:39:02.241Z,1.27
2022-10-19T14:41:28.737Z,1.20
2022-10-19T14:43:56.843Z,1.33
2022-10-19T14:46:33.905Z,0.98
2022-10-19T14:49:03.146Z,1.10
2022-10-19T14:51:43.384Z,1.08
2022-10-19T14:54:18.790Z,1.10
2022-10-19T14:56:51.286Z,1.15
2022-10-19T14:59:52.785Z,1.00
2022-10-19T15:02:28.113Z,1.65
2022-10-19T15:04:58.488Z,1.10
2022-10-19T15:07:33.592Z,1.23
2022-10-19T15:10:03.653Z,1.50
2022-10-19T15:12:37.071Z,1.20
2022-10-19T15:15:15.079Z,1.33
2022-10-19T15:17:54.526Z,1.27
2022-10-19T15:20:43.908Z,1.52
2022-10-19T15:23:44.251Z,1.30
2022-10-19T15:26:19.248Z,1.40
2022-10-19T15:28:47.027Z,1.40
2022-10-19T15:31:20.679Z,1.60
2022-10-19T15:33:52.390Z,1.40
2022-10-19T15:36:21.282Z,1.75
2022-10-19T15:38:50.077Z,1.38
2022-10-19T15:41:25.160Z,2.10
2022-10-19T15:43:53.904Z,1.33
2022-10-19T15:46:34.069Z,1.55
2022-10-19T15:49:04.888Z,1.58
2022-10-19T15:51:34.213Z,2.05
2022-10-19T15:54:06.387Z,1.58
2022-10-19T15:56:38.233Z,1.55
2022-10-19T15:59:13.758Z,1.50
2022-10-19T16:01:40.566Z,1.77
2022-10-19T16:04:07.113Z,1.48
2022-10-19T16:06:36.455Z,1.40
2022-10-19T16:09:03.854Z,1.33
2022-10-19T16:11:32.191Z,1.50
2022-10-19T16:13:58.622Z,1.48
2022-10-19T16:16:30.762Z,1.63
2022-10-19T16:18:57.350Z,1.30
2022-10-19T16:21:27.994Z,1.60
2022-10-19T16:23:54.392Z,1.80
2022-10-19T16:26:21.361Z,1.70
2022-10-19T16:28:48.614Z,1.92
2022-10-19T16:31:15.645Z,2.40
2022-10-19T16:33:42.009Z,2.05
2022-10-19T16:36:09.385Z,2.10
2022-10-19T16:38:36.268Z,2.30
2022-10-19T16:41:07.814Z,1.95
2022-10-19T16:43:35.269Z,1.90
2022-10-19T16:46:02.503Z,1.67
2022-10-19T16:48:29.748Z,1.65
2022-10-19T16:51:05.314Z,1.77
2022-10-19T16:53:32.550Z,1.30
2022-10-19T16:56:07.595Z,1.30
2022-10-19T16:58:34.335Z,1.40
2022-10-19T17:01:32.595Z,1.83
2022-10-19T17:03:59.730Z,2.08
2022-10-19T17:06:27.151Z,1.80
2022-10-19T17:11:42.556Z,1.55
2022-10-19T17:14:11.864Z,1.70
2022-10-19T17:16:38.815Z,1.60
2022-10-19T17:19:06.956Z,1.45
2022-10-19T17:21:38.067Z,1.75
2022-10-19T17:24:07.000Z,1.20
2022-10-19T17:26:39.566Z,1.73
2022-10-19T17:29:06.539Z,1.43
2022-10-19T17:31:33.028Z,1.10
2022-10-19T17:34:00.678Z,1.50
2022-10-19T17:36:30.252Z,1.90
2022-10-19T17:39:00.502Z,1.30
2022-10-19T17:41:28.396Z,1.55
2022-10-19T17:43:55.049Z,1.77
2022-10-19T17:46:27.758Z,2.00
2022-10-19T17:48:54.522Z,2.17
2022-10-19T17:51:23.755Z,1.88
2022-10-19T17:53:51.054Z,1.70
2022-10-19T17:56:19.552Z,1.77
2022-10-19T17:58:46.484Z,2.00
2022-10-19T18:01:13.702Z,2.40
2022-10-19T18:03:40.202Z,2.08
2022-10-19T18:06:12.457Z,1.85
2022-10-19T18:08:41.307Z,1.75
2022-10-19T18:11:12.966Z,1.70
2022-10-19T18:13:40.472Z,1.88
2022-10-19T18:16:12.881Z,1.90
2022-10-19T18:18:41.258Z,2.20
2022-10-19T18:21:11.426Z,2.30
2022-10-19T18:23:38.122Z,1.65
2022-10-19T18:26:07.709Z,2.38
2022-10-19T18:28:34.767Z,1.80
2022-10-19T18:31:30.554Z,2.08
2022-10-19T18:34:02.412Z,1.63
2022-10-19T18:36:30.137Z,2.08
2022-10-19T18:38:58.903Z,1.92
2022-10-19T18:41:25.874Z,2.45
2022-10-19T18:44:04.868Z,1.80
2022-10-19T18:46:33.762Z,2.10
2022-10-19T18:49:01.229Z,2.22
2022-10-19T18:51:28.348Z,2.60
2022-10-19T18:53:55.049Z,2.00
2022-10-19T18:56:22.821Z,2.15
2022-10-19T18:58:49.437Z,2.42
2022-10-19T19:01:20.280Z,2.35
2022-10-19T19:03:49.753Z,2.38
2022-10-19T19:06:25.058Z,2.20
2022-10-19T19:08:55.311Z,2.85
2022-10-19T19:11:24.124Z,2.40
2022-10-19T19:13:56.745Z,3.15
2022-10-19T19:16:24.531Z,2.20
2022-10-19T19:18:51.352Z,2.63
2022-10-19T19:21:20.377Z,2.58
2022-10-19T19:23:47.901Z,2.42
2022-10-19T19:26:15.575Z,2.30
2022-10-19T19:28:43.506Z,2.60
2022-10-19T19:31:15.173Z,3.00
2022-10-19T19:33:43.035Z,3.13
2022-10-19T19:36:11.408Z,3.17
2022-10-19T19:38:37.801Z,3.05
2022-10-19T19:41:06.227Z,2.80
2022-10-19T19:43:34.813Z,3.42
2022-10-19T19:46:06.419Z,3.70
2022-10-19T19:48:36.562Z,3.50
2022-10-19T19:51:03.133Z,3.55
2022-10-19T19:53:29.542Z,3.60
2022-10-19T19:55:56.061Z,4.45
2022-10-19T19:58:22.453Z,3.70
2022-10-19T20:00:48.859Z,3.90
2022-10-19T20:03:15.737Z,3.78
2022-10-19T20:05:42.645Z,3.60
2022-10-19T20:08:09.934Z,3.88
2022-10-19T20:10:40.906Z,3.92
2022-10-19T20:13:07.604Z,4.00
2022-10-19T20:15:34.104Z,3.92
2022-10-19T20:18:00.466Z,4.00
2022-10-19T20:20:26.840Z,4.40
2022-10-19T20:22:53.402Z,4.10
2022-10-19T20:25:19.750Z,4.00
2022-10-19T20:27:46.141Z,4.22
2022-10-19T20:30:12.518Z,4.45
2022-10-19T20:32:39.129Z,4.07
2022-10-19T20:35:07.288Z,4.57
2022-10-19T20:37:33.728Z,3.67
2022-10-19T20:40:01.464Z,4.50
2022-10-19T20:42:28.814Z,4.20
2022-10-19T20:44:56.190Z,4.40
2022-10-19T20:47:22.609Z,4.78
2022-10-19T20:49:48.960Z,4.43
2022-10-19T20:52:15.406Z,4.38
2022-10-19T20:54:41.835Z,4.80
2022-10-19T20:57:08.220Z,4.60
2022-10-19T20:59:34.634Z,4.80
2022-10-19T21:02:01.094Z,4.80
2022-10-19T21:04:27.581Z,4.80
2022-10-19T21:06:54.035Z,4.70
2022-10-19T21:09:22.497Z,4.68
2022-10-19T21:11:50.670Z,4.75
2022-10-19T21:14:25.382Z,4.28
2022-10-19T21:16:56.469Z,5.13
2022-10-19T21:19:25.232Z,4.43
2022-10-19T21:21:57.035Z,4.55
2022-10-19T21:24:29.564Z,4.85
2022-10-19T21:26:56.019Z,4.97
2022-10-19T21:29:22.461Z,4.38
2022-10-19T21:31:50.090Z,4.22
2022-10-19T21:34:19.513Z,5.22
2022-10-19T21:36:46.124Z,4.22
2022-10-19T21:39:12.629Z,4.93
2022-10-19T21:41:39.184Z,4.20
2022-10-19T21:44:05.572Z,4.65
2022-10-19T21:46:32.073Z,4.15
2022-10-19T21:48:58.502Z,4.47
2022-10-19T21:51:33.270Z,4.25
2022-10-19T21:54:00.416Z,4.82
2022-10-19T21:56:27.257Z,4.63
2022-10-19T21:58:54.263Z,4.82
2022-10-19T22:01:23.143Z,4.65
2022-10-19T22:03:49.853Z,4.55
2022-10-19T22:06:16.360Z,4.43
2022-10-19T22:08:46.616Z,4.63
2022-10-19T22:11:14.136Z,4.78
2022-10-19T22:13:41.218Z,4.35
2022-10-19T22:16:17.303Z,4.68
2022-10-19T22:18:44.296Z,4.28
2022-10-19T22:21:14.427Z,4.88
2022-10-19T22:23:41.739Z,4.32
2022-10-19T22:26:17.403Z,4.85
2022-10-19T22:28:44.733Z,5.28
2022-10-19T22:31:11.969Z,5.00
2022-10-19T22:33:39.434Z,5.40
2022-10-19T22:36:08.341Z,4.93
2022-10-19T22:38:35.715Z,5.32
2022-10-19T22:41:02.118Z,4.82
2022-10-19T22:43:28.721Z,5.13
2022-10-19T22:45:55.094Z,4.95
2022-10-19T22:48:21.504Z,5.00
2022-10-19T22:50:47.931Z,5.10
2022-10-19T22:53:14.397Z,5.18
2022-10-19T22:55:40.792Z,4.47
2022-10-19T22:58:08.462Z,4.60
2022-10-19T23:00:34.889Z,4.95
2022-10-19T23:03:01.329Z,5.32
2022-10-19T23:05:27.970Z,4.88
2022-10-19T23:07:54.392Z,5.43
2022-10-19T23:10:20.897Z,5.00
2022-10-19T23:12:52.002Z,4.93
2022-10-19T23:15:19.422Z,5.60
2022-10-19T23:17:45.972Z,5.32
2022-10-19T23:20:12.900Z,5.15
2022-10-19T23:22:39.958Z,5.25
2022-10-19T23:25:07.223Z,5.07
2022-10-19T23:27:34.342Z,5.35
2022-10-19T23:30:01.625Z,5.22
2022-10-19T23:32:28.040Z,5.20
2022-10-19T23:34:54.414Z,5.45
2022-10-19T23:37:20.820Z,5.13
2022-10-19T23:39:47.233Z,5.25
2022-10-19T23:42:13.616Z,5.13
2022-10-19T23:44:40.002Z,5.28
2022-10-19T23:47:06.389Z,5.07
2022-10-19T23:49:32.753Z,5.22
2022-10-19T23:51:59.125Z,5.28
2022-10-19T23:54:25.580Z,5.03
2022-10-19T23:56:52.006Z,5.95
2022-10-19T23:59:18.356Z,5.90
